Friday, October 19, 2018, 11:30 AM EDT
Back to Local

KWRI, Mcguire Air Force Base

Location: Trenton, NJ, United States Lat: 40.017
Local Time: 11:30 AM EDT (15:30 GMT) Lon: -74.6
Time Zone: US/Eastern Elev: 134 ft

Show me the last for .
Show Decoded

2018-10-19 10:56 METAR KWRI 191456Z AUTO 26010KT 10SM CLR 13/01 A3027 RMK AO2 SLP251 T01320009
                 58014 RVRNO VISNO RWY06 $ =
2018-10-19 09:56 METAR KWRI 191356Z AUTO 26009KT 10SM CLR 11/03 A3030 RMK AO2 SLP261 T01050026
                 RVRNO VISNO RWY06 $ =
2018-10-19 08:56 METAR KWRI 191256Z AUTO 23006KT 10SM CLR 07/02 A3032 RMK AO2 SLP268 T00690024
                 RVRNO VISNO RWY06 $ =
2018-10-19 07:56 METAR KWRI 191156Z AUTO 00000KT 10SM CLR 05/01 A3032 RMK AO2 SLP268 T00460014
                 10046 20011 50001 RVRNO VISNO RWY06 $ =
2018-10-19 06:56 METAR KWRI 191056Z AUTO 00000KT 10SM CLR 03/01 A3031 RMK AO2 SLP265 T00320011
                 RVRNO VISNO RWY06 $ =
2018-10-19 05:56 METAR KWRI 190956Z AUTO 24003KT 10SM CLR 03/01 A3031 RMK AO2 SLP264 T00320009
                 RVRNO VISNO RWY06 $ =
2018-10-19 04:56 METAR KWRI 190856Z AUTO 00000KT 10SM CLR 01/00 A3031 RMK AO2 SLP264 T00110001
                 57003 RVRNO VISNO RWY06 $ =
2018-10-19 03:56 METAR KWRI 190756Z AUTO 00000KT 10SM CLR 03/01 A3032 RMK AO2 SLP268 T00280007
                 RVRNO VISNO RWY06 $ =
2018-10-19 02:56 METAR KWRI 190656Z AUTO 22003KT 10SM CLR 02/00 A3032 RMK AO2 SLP268 T00220004
                 RVRNO VISNO RWY06 $ =
2018-10-19 01:56 METAR KWRI 190556Z AUTO 00000KT 10SM CLR 01/00 A3032 RMK AO2 SLP268 T00130003
                 10069 20013 57006 RVRNO VISNO RWY06 $ =
2018-10-19 00:56 METAR KWRI 190456Z AUTO 00000KT 10SM CLR 02/00 A3033 RMK AO2 SLP271 T00190003
                 401140015 RVRNO VISNO RWY06 $ =
2018-10-18 23:56 METAR KWRI 190356Z AUTO 00000KT 10SM CLR 02/01 A3033 RMK AO2 SLP271 T00220007
                 RVRNO VISNO RWY06 $ =
2018-10-18 22:56 METAR KWRI 190256Z AUTO 00000KT 10SM CLR 03/01 A3034 RMK AO2 SLP275 T00300009
                 53001 RVRNO VISNO RWY06 $ =
2018-10-18 21:56 METAR KWRI 190156Z AUTO 18003KT 10SM CLR 04/01 A3034 RMK AO2 SLP275 T00400005
                 RVRNO VISNO RWY06 $ =
2018-10-18 20:56 METAR KWRI 190056Z AUTO 27003KT 10SM CLR 05/M01 A3033 RMK AO2 SLP271 T00521006
                 RVRNO VISNO RWY06 $ =
2018-10-18 19:56 METAR KWRI 182356Z AUTO 28004KT 10SM CLR 07/M01 A3034 RMK AO2 SLP275 T00671012
                 10114 20066 52010 RVRNO VISNO RWY06 $ =
2018-10-18 18:56 METAR KWRI 182256Z AUTO 28004KT 10SM CLR 08/M01 A3034 RMK AO2 SLP275 T00771013
                 RVRNO VISNO RWY06 $ =
2018-10-18 17:56 METAR KWRI 182156Z AUTO 29010KT 10SM CLR 10/M02 A3032 RMK AO2 SLP268 T00971020
                 RVRNO VISNO RWY06 $ =
2018-10-18 16:56 METAR KWRI 182056Z AUTO 29010KT 10SM CLR 11/M02 A3031 RMK AO2 SLP264 T01081023
                 56009 RVRNO VISNO RWY06 $ =
2018-10-18 15:56 METAR KWRI 181956Z AUTO 32011KT 10SM CLR 11/M02 A3031 RMK AO2 SLP264 T01131022
                 RVRNO VISNO RWY06 $ =
2018-10-18 14:56 METAR KWRI 181856Z AUTO 30009KT 10SM CLR 11/M02 A3032 RMK AO2 SLP268 T01141024
                 RVRNO VISNO RWY06 $ =
2018-10-18 14:53 METAR KWRI 181853Z AUTO 28011G21KT 10SM CLR 11/M02 A3031 RMK AO2 WSHFT 44 SLP264
                 RVRNO VISNO RWY06 $ =
2018-10-18 13:56 METAR KWRI 181756Z AUTO 28011G16KT 10SM SCT055 11/M02 A3034 RMK AO2 SLP274
                 T01091025 10112 20054 58007 RVRNO VISNO RWY06 $ =
2018-10-18 12:56 METAR KWRI 181656Z 28009G16KT 10SM CLR 10/M03 A3035 RMK AO2A SLP278 T00991027
                 RVRNO $ =
2018-10-18 12:37 METAR KWRI 181637Z 30013KT 10SM FEW055 11/M03 A3035 RMK AO2A WSHFT 29 SLP278
                 RVRNO $ =
2018-10-18 11:56 METAR KWRI 181556Z AUTO 36012G16KT 10SM FEW055 09/M04 A3036 RMK AO2 SLP281
                 T00921037 RVRNO VISNO RWY06 $ =

Support USWX by starting your Amazon purchase here.